createdAt,value
2019-05-20T00:00:58.683Z,13.99
2019-05-20T00:05:00.819Z,13.93
2019-05-20T00:09:02.848Z,13.92
2019-05-20T00:13:06.134Z,13.81
2019-05-20T00:17:08.133Z,13.61
2019-05-20T00:21:10.445Z,13.51
2019-05-20T00:25:12.600Z,13.43
2019-05-20T00:29:14.519Z,13.40
2019-05-20T00:33:16.699Z,13.33
2019-05-20T00:37:18.913Z,13.29
2019-05-20T00:41:20.757Z,13.31
2019-05-20T00:45:22.565Z,13.31
2019-05-20T00:49:24.585Z,13.18
2019-05-20T00:53:26.586Z,13.16
2019-05-20T00:57:28.401Z,13.14
2019-05-20T01:01:30.177Z,13.15
2019-05-20T01:05:31.970Z,13.08
2019-05-20T01:09:33.719Z,13.03
2019-05-20T01:13:35.656Z,12.96
2019-05-20T01:17:37.395Z,13.11
2019-05-20T01:21:39.215Z,13.06
2019-05-20T01:25:40.954Z,12.95
2019-05-20T01:29:42.724Z,13.02
2019-05-20T01:33:44.484Z,13.11
2019-05-20T01:37:47.421Z,13.11
2019-05-20T01:41:49.206Z,13.15
2019-05-20T01:45:50.982Z,13.17
2019-05-20T01:49:52.749Z,13.14
2019-05-20T01:53:54.552Z,13.16
2019-05-20T01:57:56.304Z,13.17
2019-05-20T02:01:58.090Z,13.16
2019-05-20T02:06:02.008Z,13.17
2019-05-20T02:10:04.480Z,13.20
2019-05-20T02:14:10.185Z,13.22
2019-05-20T02:18:12.081Z,13.21
2019-05-20T02:22:13.877Z,13.23
2019-05-20T02:26:15.958Z,13.22
2019-05-20T02:30:17.796Z,13.24
2019-05-20T02:34:19.657Z,13.25
2019-05-20T02:38:21.648Z,13.26
2019-05-20T02:42:23.845Z,13.27
2019-05-20T02:46:26.878Z,13.29
2019-05-20T02:50:29.658Z,13.30
2019-05-20T02:54:31.421Z,13.30
2019-05-20T02:58:33.213Z,13.27
2019-05-20T03:02:35.090Z,13.26
2019-05-20T03:06:37.225Z,13.26
2019-05-20T03:10:39.242Z,13.24
2019-05-20T03:14:41.218Z,13.21
2019-05-20T03:18:43.332Z,13.22
2019-05-20T03:22:45.253Z,13.21
2019-05-20T03:26:47.362Z,13.17
2019-05-20T03:30:49.194Z,13.19
2019-05-20T03:34:59.246Z,13.23
2019-05-20T03:38:54.951Z,13.27
2019-05-20T03:42:57.157Z,13.32
2019-05-20T03:46:58.953Z,13.39
2019-05-20T03:51:00.776Z,13.53
2019-05-20T03:55:02.911Z,13.69
2019-05-20T03:59:04.992Z,13.86
2019-05-20T04:03:07.049Z,14.03
2019-05-20T04:07:08.928Z,14.24
2019-05-20T04:11:10.715Z,14.35
2019-05-20T04:15:12.470Z,14.41
2019-05-20T04:19:14.525Z,14.46
2019-05-20T04:23:16.281Z,14.56
2019-05-20T04:27:18.058Z,14.63
2019-05-20T04:31:22.670Z,14.68
2019-05-20T04:35:26.938Z,14.78
2019-05-20T04:39:30.346Z,14.95
2019-05-20T04:43:35.636Z,15.16
2019-05-20T04:47:41.592Z,15.30
2019-05-20T04:51:43.378Z,15.39
2019-05-20T04:55:46.878Z,15.53
2019-05-20T04:59:48.665Z,15.61
2019-05-20T05:03:50.547Z,15.66
2019-05-20T05:07:52.365Z,15.86
2019-05-20T05:11:54.138Z,16.27
2019-05-20T05:15:56.240Z,16.52
2019-05-20T05:19:57.966Z,16.63
2019-05-20T05:23:59.825Z,16.85
2019-05-20T05:28:01.577Z,16.88
2019-05-20T05:32:03.391Z,17.19
2019-05-20T05:36:05.298Z,17.17
2019-05-20T05:40:08.280Z,17.33
2019-05-20T05:44:10.294Z,17.39
2019-05-20T05:48:12.822Z,17.69
2019-05-20T05:52:16.563Z,18.29
2019-05-20T05:56:19.209Z,18.70
2019-05-20T06:00:21.295Z,19.24
2019-05-20T06:04:23.069Z,19.79
2019-05-20T06:08:24.814Z,20.15
2019-05-20T06:12:26.909Z,20.06
2019-05-20T06:16:36.416Z,19.88
2019-05-20T06:20:32.553Z,20.18
2019-05-20T06:24:34.331Z,20.59
2019-05-20T06:28:37.308Z,20.93
2019-05-20T06:32:39.273Z,20.76
2019-05-20T06:36:44.734Z,20.99
2019-05-20T06:40:46.831Z,21.03
2019-05-20T06:44:52.929Z,21.28
2019-05-20T06:48:52.118Z,21.51
2019-05-20T06:52:53.989Z,21.61
2019-05-20T06:56:55.969Z,21.68
2019-05-20T07:00:57.832Z,21.88
2019-05-20T07:04:59.591Z,22.04
2019-05-20T07:09:01.427Z,22.44
2019-05-20T07:13:04.945Z,22.34
2019-05-20T07:17:06.768Z,22.47
2019-05-20T07:21:08.544Z,22.73
2019-05-20T07:25:10.878Z,23.13
2019-05-20T07:29:12.657Z,23.01
2019-05-20T07:33:14.754Z,23.04
2019-05-20T07:37:16.790Z,23.27
2019-05-20T07:41:18.842Z,23.45
2019-05-20T07:45:20.836Z,23.30
2019-05-20T07:49:23.677Z,23.48
2019-05-20T07:53:26.321Z,23.64
2019-05-20T07:57:31.598Z,24.13
2019-05-20T08:01:33.738Z,24.21
2019-05-20T08:05:35.529Z,24.31
2019-05-20T08:09:45.249Z,24.48
2019-05-20T08:13:41.160Z,24.48
2019-05-20T08:17:42.942Z,24.37
2019-05-20T08:21:44.850Z,24.65
2019-05-20T08:25:46.866Z,24.85
2019-05-20T08:29:48.677Z,24.85
2019-05-20T08:33:50.728Z,25.00
2019-05-20T08:37:52.802Z,25.13
2019-05-20T08:41:54.771Z,25.54
2019-05-20T08:45:56.736Z,25.83
2019-05-20T08:49:58.735Z,25.74
2019-05-20T08:54:00.625Z,25.67
2019-05-20T08:58:02.378Z,25.60
2019-05-20T09:02:04.209Z,25.30
2019-05-20T09:06:06.000Z,25.64
2019-05-20T09:10:07.944Z,25.97
2019-05-20T09:14:09.710Z,25.96
2019-05-20T09:18:11.543Z,26.13
2019-05-20T09:22:13.292Z,25.90
2019-05-20T09:26:15.086Z,26.06
2019-05-20T09:30:17.038Z,26.37
2019-05-20T09:34:18.933Z,26.54
2019-05-20T09:38:21.539Z,26.35
2019-05-20T09:42:23.542Z,26.46
2019-05-20T09:46:25.477Z,26.73
2019-05-20T09:50:27.293Z,26.82
2019-05-20T09:54:29.168Z,26.79
2019-05-20T09:58:31.597Z,27.34
2019-05-20T10:02:38.018Z,27.19
2019-05-20T10:06:37.333Z,27.16
2019-05-20T10:10:39.289Z,27.21
2019-05-20T10:14:41.185Z,27.38
2019-05-20T10:18:43.142Z,27.46
2019-05-20T10:22:45.153Z,27.37
2019-05-20T10:26:47.176Z,27.23
2019-05-20T10:30:48.985Z,27.47
2019-05-20T10:34:50.801Z,27.42
2019-05-20T10:38:58.395Z,27.65
2019-05-20T10:42:56.203Z,27.41
2019-05-20T10:46:58.011Z,26.96
2019-05-20T10:50:59.760Z,27.00
2019-05-20T10:55:01.890Z,26.39
2019-05-20T10:59:03.795Z,26.00
2019-05-20T11:03:05.623Z,25.89
2019-05-20T11:07:07.534Z,25.96
2019-05-20T11:11:13.862Z,26.39
2019-05-20T11:15:13.117Z,26.43
2019-05-20T11:19:15.018Z,26.34
2019-05-20T11:23:16.793Z,26.39
2019-05-20T11:27:18.669Z,26.97
2019-05-20T11:31:21.466Z,27.02
2019-05-20T11:35:23.269Z,27.13
2019-05-20T11:39:33.261Z,26.99
2019-05-20T11:43:28.966Z,26.98
2019-05-20T11:47:30.699Z,26.37
2019-05-20T11:51:32.525Z,25.93
2019-05-20T11:55:35.317Z,26.26
2019-05-20T11:59:37.119Z,26.67
2019-05-20T12:03:39.982Z,26.87
2019-05-20T12:07:41.925Z,27.10
2019-05-20T12:11:43.678Z,26.89
2019-05-20T12:15:45.475Z,26.89
2019-05-20T12:19:47.198Z,26.60
2019-05-20T12:23:49.004Z,27.04
2019-05-20T12:27:50.836Z,27.32
2019-05-20T12:31:53.015Z,27.44
2019-05-20T12:36:07.791Z,27.08
2019-05-20T12:40:27.538Z,26.45
2019-05-20T12:44:29.355Z,26.11
2019-05-20T12:48:32.469Z,25.94
2019-05-20T12:52:35.769Z,25.71
2019-05-20T12:56:37.803Z,25.82
2019-05-20T13:00:39.814Z,26.02
2019-05-20T13:04:41.756Z,25.94
2019-05-20T13:08:43.617Z,25.91
2019-05-20T13:12:48.463Z,25.56
2019-05-20T13:16:50.287Z,25.30
2019-05-20T13:20:52.105Z,25.46
2019-05-20T13:24:53.871Z,25.36
2019-05-20T13:28:59.288Z,25.33
2019-05-20T13:32:59.304Z,25.49
2019-05-20T13:37:01.339Z,25.38
2019-05-20T13:41:03.090Z,25.26
2019-05-20T13:45:05.097Z,25.25
2019-05-20T13:49:06.945Z,25.31
2019-05-20T13:53:08.970Z,25.37
2019-05-20T13:57:13.084Z,25.48
2019-05-20T14:01:14.333Z,26.60
2019-05-20T14:05:16.212Z,27.31
2019-05-20T14:09:18.098Z,27.06
2019-05-20T14:13:20.116Z,27.34
2019-05-20T14:17:22.038Z,26.62
2019-05-20T14:21:23.777Z,26.03
2019-05-20T14:25:28.653Z,25.54
2019-05-20T14:29:29.564Z,25.30
2019-05-20T14:33:32.278Z,25.25
2019-05-20T14:37:34.395Z,24.94
2019-05-20T14:41:36.213Z,24.90
2019-05-20T14:45:37.987Z,24.67
2019-05-20T14:49:39.811Z,24.71
2019-05-20T14:53:41.664Z,24.51
2019-05-20T14:57:43.596Z,24.40
2019-05-20T15:01:45.450Z,23.92
2019-05-20T15:05:47.330Z,23.92
2019-05-20T15:09:49.396Z,23.70
2019-05-20T15:13:51.640Z,23.62
2019-05-20T15:17:53.965Z,23.62
2019-05-20T15:21:56.272Z,23.62
2019-05-20T15:25:58.316Z,23.43
2019-05-20T15:30:00.447Z,23.09
2019-05-20T15:34:02.867Z,22.94
2019-05-20T15:38:05.109Z,22.78
2019-05-20T15:42:07.262Z,22.49
2019-05-20T15:46:09.443Z,22.35
2019-05-20T15:50:11.748Z,22.29
2019-05-20T15:54:13.921Z,22.06
2019-05-20T15:58:17.213Z,21.76
2019-05-20T16:02:21.162Z,21.62
2019-05-20T16:06:24.923Z,21.58
2019-05-20T16:10:27.401Z,21.61
2019-05-20T16:14:29.460Z,21.54
2019-05-20T16:18:31.804Z,21.43
2019-05-20T16:22:34.144Z,21.25
2019-05-20T16:26:36.243Z,20.98
2019-05-20T16:30:38.669Z,20.83
2019-05-20T16:34:41.948Z,20.88
2019-05-20T16:38:44.290Z,20.88
2019-05-20T16:42:46.815Z,20.72
2019-05-20T16:46:49.059Z,20.54
2019-05-20T16:50:52.168Z,20.57
2019-05-20T16:54:54.656Z,20.56
2019-05-20T16:58:56.862Z,20.56
2019-05-20T17:02:59.195Z,20.61
2019-05-20T17:07:01.514Z,20.40
2019-05-20T17:11:05.720Z,20.18
2019-05-20T17:15:08.635Z,20.09
2019-05-20T17:19:10.600Z,20.10
2019-05-20T17:23:12.694Z,20.26
2019-05-20T17:27:14.812Z,20.33
2019-05-20T17:31:21.031Z,20.22
2019-05-20T17:35:40.403Z,20.06
2019-05-20T17:39:42.702Z,19.96
2019-05-20T17:43:44.868Z,19.87
2019-05-20T17:47:47.225Z,19.74
2019-05-20T17:51:50.343Z,19.65
2019-05-20T17:55:52.884Z,19.60
2019-05-20T17:59:55.962Z,19.59
2019-05-20T18:03:58.254Z,19.52
2019-05-20T18:08:00.500Z,19.69
2019-05-20T18:12:02.614Z,19.64
2019-05-20T18:16:05.584Z,19.68
2019-05-20T18:20:07.898Z,19.77
2019-05-20T18:24:10.016Z,19.71
2019-05-20T18:28:12.087Z,19.71
2019-05-20T18:32:14.349Z,19.57
2019-05-20T18:36:24.085Z,19.38
2019-05-20T18:40:26.835Z,19.31
2019-05-20T18:44:29.038Z,19.29
2019-05-20T18:48:31.299Z,19.16
2019-05-20T18:52:33.303Z,19.02
2019-05-20T18:56:35.465Z,18.93
2019-05-20T19:00:37.552Z,18.81
2019-05-20T19:04:40.010Z,18.66
2019-05-20T19:08:42.039Z,18.48
2019-05-20T19:12:44.055Z,18.30
2019-05-20T19:16:46.358Z,18.07
2019-05-20T19:20:48.539Z,17.87
2019-05-20T19:24:50.833Z,17.75
2019-05-20T19:28:53.072Z,17.65
2019-05-20T19:32:55.287Z,17.68
2019-05-20T19:36:57.695Z,17.66
2019-05-20T19:40:59.876Z,17.48
2019-05-20T19:45:03.149Z,17.47
2019-05-20T19:49:06.999Z,17.46
2019-05-20T19:53:09.269Z,17.41
2019-05-20T19:57:11.311Z,17.36
2019-05-20T20:01:13.287Z,17.31
2019-05-20T20:05:15.768Z,17.26
2019-05-20T20:09:18.142Z,17.21
2019-05-20T20:13:23.442Z,17.08
2019-05-20T20:17:25.515Z,17.00
2019-05-20T20:21:27.587Z,16.92
2019-05-20T20:25:29.841Z,16.84
2019-05-20T20:29:31.774Z,16.76
2019-05-20T20:33:33.785Z,16.70
2019-05-20T20:37:35.999Z,16.69
2019-05-20T20:41:38.063Z,16.61
2019-05-20T20:45:40.289Z,16.49
2019-05-20T20:49:42.608Z,16.43
2019-05-20T20:53:44.929Z,16.31
2019-05-20T20:57:47.148Z,16.29
2019-05-20T21:01:49.622Z,16.26
2019-05-20T21:05:52.015Z,16.29
2019-05-20T21:09:54.151Z,16.37
2019-05-20T21:13:56.315Z,16.46
2019-05-20T21:17:58.581Z,16.39
2019-05-20T21:22:01.028Z,16.34
2019-05-20T21:26:03.378Z,16.31
2019-05-20T21:30:05.867Z,16.33
2019-05-20T21:34:08.243Z,16.34
2019-05-20T21:38:10.523Z,16.40
2019-05-20T21:42:12.803Z,16.33
2019-05-20T21:46:15.171Z,16.26
2019-05-20T21:50:17.482Z,16.18
2019-05-20T21:54:19.828Z,16.12
2019-05-20T21:58:22.229Z,16.04
2019-05-20T22:02:26.589Z,16.01
2019-05-20T22:06:28.324Z,15.99
2019-05-20T22:10:30.255Z,15.98
2019-05-20T22:14:32.476Z,15.97
2019-05-20T22:18:34.692Z,15.94
2019-05-20T22:22:54.906Z,15.98
2019-05-20T22:26:57.010Z,15.94
2019-05-20T22:30:59.107Z,15.97
2019-05-20T22:35:01.285Z,15.97
2019-05-20T22:39:06.287Z,15.92
2019-05-20T22:43:08.416Z,15.96
2019-05-20T22:47:10.654Z,15.92
2019-05-20T22:51:12.651Z,15.92
2019-05-20T22:55:14.973Z,15.90
2019-05-20T22:59:16.988Z,15.95
2019-05-20T23:03:19.153Z,15.92
2019-05-20T23:07:21.398Z,15.85
2019-05-20T23:11:23.671Z,15.88
2019-05-20T23:15:25.752Z,15.86
2019-05-20T23:19:28.917Z,15.85
2019-05-20T23:23:31.002Z,15.86
2019-05-20T23:27:33.123Z,15.87
2019-05-20T23:31:35.266Z,15.98
2019-05-20T23:35:37.466Z,16.01
2019-05-20T23:39:39.435Z,16.01
2019-05-20T23:43:41.734Z,16.04
2019-05-20T23:47:43.878Z,16.02
2019-05-20T23:51:45.659Z,15.99
2019-05-20T23:55:47.588Z,16.00
2019-05-20T23:59:49.767Z,16.11
